Time;durP1;ratioP1;P1;durP2;ratioP2;P2;SDS_P1;SDS_P2;PMS_P1;PMS_P2;Temp;Humidity;BMP_temperature;BMP_pressure;BME280_temperature;BME280_humidity;BME280_pressure;Samples;Min_cycle;Max_cycle;Signal;HPM_P1;HPM_P2
2024/01/12 00:00:42;;;;;;;2.20;1.70;;;18.80;42.30;;;;;;8329561;28;20044;-46
2024/01/12 00:04:43;;;;;;;2.43;1.97;;;18.80;42.30;;;;;;8329206;28;20037;-46
2024/01/12 00:08:43;;;;;;;2.15;1.30;;;18.80;42.30;;;;;;8329060;28;20758;-46
2024/01/12 00:12:44;;;;;;;2.05;1.55;;;18.80;42.40;;;;;;8329381;28;20108;-46
2024/01/12 00:16:48;;;;;;;3.08;1.80;;;18.80;42.40;;;;;;8330139;28;20120;-46
2024/01/12 00:20:48;;;;;;;2.42;1.65;;;18.80;42.40;;;;;;8329219;28;20030;-46
2024/01/12 00:24:49;;;;;;;1.85;1.63;;;18.80;42.40;;;;;;8328684;28;20040;-46
2024/01/12 00:28:50;;;;;;;2.00;1.70;;;18.80;42.40;;;;;;8328804;28;20041;-46
2024/01/12 00:32:50;;;;;;;2.03;1.55;;;18.80;42.40;;;;;;8328185;28;20056;-47
2024/01/12 00:36:53;;;;;;;2.13;1.50;;;18.80;42.30;;;;;;8328378;28;20041;-47
2024/01/12 00:40:54;;;;;;;2.22;1.90;;;18.80;42.30;;;;;;8328408;28;20065;-49
2024/01/12 00:44:54;;;;;;;2.20;1.73;;;18.80;42.30;;;;;;8328347;28;20038;-46
2024/01/12 00:48:55;;;;;;;1.67;1.52;;;18.80;42.30;;;;;;8328151;28;20030;-46
2024/01/12 00:52:56;;;;;;;2.00;1.63;;;18.90;42.30;;;;;;8327989;28;20037;-46
2024/01/12 00:56:56;;;;;;;2.63;2.05;;;18.80;42.30;;;;;;8327867;28;20045;-44
2024/01/12 01:00:58;;;;;;;1.85;1.42;;;18.80;42.30;;;;;;8328209;28;20038;-49
2024/01/12 01:04:59;;;;;;;3.28;1.73;;;18.80;42.40;;;;;;8327522;28;20029;-46
2024/01/12 01:08:59;;;;;;;2.05;1.58;;;18.80;42.40;;;;;;8327240;28;20042;-46
2024/01/12 01:13:00;;;;;;;2.25;1.80;;;18.80;42.40;;;;;;8327729;28;20121;-47
2024/01/12 01:17:01;;;;;;;2.88;1.90;;;18.80;42.40;;;;;;8327345;28;20065;-45
2024/01/12 01:21:02;;;;;;;2.30;1.58;;;18.80;42.30;;;;;;8327183;28;20095;-46
2024/01/12 01:25:03;;;;;;;2.00;1.70;;;18.80;42.30;;;;;;8327205;28;20638;-46
2024/01/12 01:29:03;;;;;;;2.38;1.80;;;18.90;42.30;;;;;;8326012;28;20033;-46
2024/01/12 01:33:04;;;;;;;2.97;2.00;;;18.80;42.30;;;;;;8326973;28;20060;-46
2024/01/12 01:37:05;;;;;;;2.75;1.85;;;18.80;42.30;;;;;;8327210;28;20143;-45
2024/01/12 01:41:06;;;;;;;1.92;1.67;;;18.80;42.40;;;;;;8326670;28;20041;-45
2024/01/12 01:45:07;;;;;;;2.17;1.65;;;18.80;42.50;;;;;;8326055;28;20053;-45
2024/01/12 01:49:08;;;;;;;2.90;2.05;;;18.80;42.40;;;;;;8326813;28;20084;-45
2024/01/12 01:53:08;;;;;;;1.65;1.42;;;18.80;42.40;;;;;;8326681;28;20049;-46
2024/01/12 01:57:10;;;;;;;2.13;1.70;;;18.80;42.40;;;;;;8326361;28;20399;-45
2024/01/12 02:01:10;;;;;;;;;;;18.80;42.40;;;;;;8327202;28;20116;-46
2024/01/12 02:05:11;;;;;;;2.43;1.73;;;18.80;42.40;;;;;;8326335;28;19920;-45
2024/01/12 02:09:12;;;;;;;1.95;1.38;;;18.80;42.40;;;;;;8326281;28;20498;-45
2024/01/12 02:13:13;;;;;;;2.63;1.55;;;18.80;42.40;;;;;;8326729;28;20038;-47
2024/01/12 02:17:14;;;;;;;2.38;1.80;;;18.80;42.40;;;;;;8326186;28;20033;-46
2024/01/12 02:21:14;;;;;;;3.05;2.10;;;18.80;42.40;;;;;;8326483;28;20030;-46
2024/01/12 02:25:16;;;;;;;2.45;1.83;;;18.80;42.40;;;;;;8326218;28;20048;-45
2024/01/12 02:29:16;;;;;;;;;;;18.80;42.40;;;;;;8326757;28;20108;-46
2024/01/12 02:33:17;;;;;;;1.87;1.60;;;18.80;42.40;;;;;;8326234;28;19909;-47
2024/01/12 02:37:18;;;;;;;2.40;1.83;;;18.80;42.40;;;;;;8324710;28;20088;-45
2024/01/12 02:41:19;;;;;;;2.28;1.92;;;18.80;42.40;;;;;;8324867;28;20041;-45
2024/01/12 02:45:20;;;;;;;2.70;1.90;;;18.80;42.50;;;;;;8326794;28;20080;-45
2024/01/12 02:49:21;;;;;;;1.98;1.63;;;18.80;42.50;;;;;;8325799;28;20034;-46
2024/01/12 02:53:22;;;;;;;2.70;1.73;;;18.70;42.50;;;;;;8326599;28;20032;-45
2024/01/12 02:57:23;;;;;;;2.28;1.90;;;18.80;42.60;;;;;;8330523;28;20041;-45
2024/01/12 03:01:23;;;;;;;2.40;1.88;;;18.70;42.50;;;;;;8331282;28;20434;-45
2024/01/12 03:05:24;;;;;;;2.15;1.50;;;18.80;42.50;;;;;;8331122;28;20218;-46
2024/01/12 03:09:25;;;;;;;2.20;1.77;;;18.80;42.60;;;;;;8331060;28;20057;-45
2024/01/12 03:13:26;;;;;;;2.08;1.70;;;18.80;42.50;;;;;;8330764;28;20307;-46
2024/01/12 03:17:26;;;;;;;2.78;1.83;;;18.80;42.50;;;;;;8331041;28;20095;-45
2024/01/12 03:21:27;;;;;;;2.10;1.58;;;18.80;42.50;;;;;;8330702;28;20044;-46
2024/01/12 03:25:28;;;;;;;2.10;1.52;;;18.80;42.50;;;;;;8330474;28;20397;-46
2024/01/12 03:29:28;;;;;;;2.90;1.92;;;18.80;42.50;;;;;;8330754;28;20069;-46
2024/01/12 03:33:29;;;;;;;2.25;1.40;;;18.80;42.50;;;;;;8330297;28;20029;-44
2024/01/12 03:37:30;;;;;;;2.92;1.80;;;18.80;42.50;;;;;;8330159;28;20033;-45
2024/01/12 03:41:31;;;;;;;1.80;1.52;;;18.80;42.50;;;;;;8330152;28;20044;-46
2024/01/12 03:45:31;;;;;;;2.38;1.60;;;18.80;42.50;;;;;;8329950;28;20042;-45
2024/01/12 03:49:33;;;;;;;1.83;1.45;;;18.80;42.50;;;;;;8329857;28;20032;-47
2024/01/12 03:53:34;;;;;;;1.88;1.40;;;18.80;42.50;;;;;;8329797;28;20034;-46
2024/01/12 03:57:35;;;;;;;2.40;1.95;;;18.80;42.50;;;;;;8329250;28;20030;-46
2024/01/12 04:01:36;;;;;;;2.50;1.73;;;18.80;42.50;;;;;;8329421;28;20034;-46
2024/01/12 04:05:36;;;;;;;2.63;1.43;;;18.80;42.50;;;;;;8327375;28;20530;-47
2024/01/12 04:09:37;;;;;;;1.77;1.47;;;18.80;42.50;;;;;;8329110;28;20331;-46
2024/01/12 04:13:38;;;;;;;1.98;1.67;;;18.80;42.50;;;;;;8329015;28;20283;-46
2024/01/12 04:17:38;;;;;;;2.33;1.80;;;18.70;42.50;;;;;;8329323;28;20068;-47
2024/01/12 04:21:39;;;;;;;1.92;1.33;;;18.80;42.50;;;;;;8328900;28;20037;-47
2024/01/12 04:25:40;;;;;;;2.33;1.88;;;18.80;42.60;;;;;;8328749;28;20033;-46
2024/01/12 04:29:40;;;;;;;1.90;1.70;;;18.80;42.50;;;;;;8327268;28;20033;-47
2024/01/12 04:33:41;;;;;;;2.17;1.40;;;18.80;42.50;;;;;;8328494;28;20036;-47
2024/01/12 04:37:42;;;;;;;1.83;1.40;;;18.80;42.50;;;;;;8328229;28;20026;-47
2024/01/12 04:41:43;;;;;;;2.33;1.60;;;18.80;42.50;;;;;;8329143;28;20057;-47
2024/01/12 04:45:43;;;;;;;2.15;1.60;;;18.80;42.50;;;;;;8327993;28;20084;-48
2024/01/12 04:49:44;;;;;;;2.15;1.73;;;18.80;42.50;;;;;;8327883;28;20080;-47
2024/01/12 04:53:45;;;;;;;1.90;1.50;;;18.80;42.50;;;;;;8327914;28;20058;-46
2024/01/12 04:57:45;;;;;;;2.78;1.83;;;18.80;42.50;;;;;;8326457;28;20128;-47
2024/01/12 05:01:46;;;;;;;2.78;1.95;;;18.80;42.50;;;;;;8327742;28;20484;-47
2024/01/12 05:05:47;;;;;;;2.25;1.58;;;18.80;42.50;;;;;;8327540;28;20046;-46
2024/01/12 05:09:48;;;;;;;1.58;1.40;;;18.80;42.50;;;;;;8327222;28;20124;-46
2024/01/12 05:13:48;;;;;;;2.65;1.58;;;18.80;42.50;;;;;;8327531;28;20025;-46
2024/01/12 05:17:49;;;;;;;2.13;1.73;;;18.80;42.50;;;;;;8326435;28;20030;-46
2024/01/12 05:21:50;;;;;;;2.55;1.80;;;18.80;42.50;;;;;;8326944;28;20029;-47
2024/01/12 05:25:50;;;;;;;1.98;1.60;;;18.80;42.40;;;;;;8327027;28;20468;-46
2024/01/12 05:29:51;;;;;;;2.10;1.48;;;18.80;42.40;;;;;;8327153;28;20075;-46
2024/01/12 05:33:52;;;;;;;2.10;1.67;;;18.80;42.40;;;;;;8326901;28;20472;-47
2024/01/12 05:37:54;;;;;;;2.25;1.63;;;18.90;42.40;;;;;;8326933;28;20033;-46
2024/01/12 05:41:55;;;;;;;2.85;1.80;;;18.80;42.40;;;;;;8326755;28;20038;-46
2024/01/12 05:45:56;;;;;;;1.92;1.52;;;18.90;42.40;;;;;;8326845;28;20115;-46
2024/01/12 05:49:56;;;;;;;2.05;1.77;;;18.80;42.40;;;;;;8326609;28;20471;-46
2024/01/12 05:53:57;;;;;;;1.42;1.33;;;18.80;42.40;;;;;;8326772;28;20079;-47
2024/01/12 05:57:58;;;;;;;1.83;1.42;;;18.90;42.50;;;;;;8326821;28;20033;-46
2024/01/12 06:01:59;;;;;;;1.85;1.50;;;18.80;42.40;;;;;;8326605;28;20480;-46
2024/01/12 06:05:59;;;;;;;2.28;1.85;;;18.80;42.40;;;;;;8325083;28;20036;-46
2024/01/12 06:10:00;;;;;;;2.55;1.83;;;18.80;42.40;;;;;;8326560;28;20173;-47
2024/01/12 06:14:02;;;;;;;1.90;1.73;;;18.80;42.40;;;;;;8326556;28;20034;-46
2024/01/12 06:18:04;;;;;;;2.53;1.67;;;18.80;42.40;;;;;;8326250;28;20047;-47
2024/01/12 06:22:04;;;;;;;;;;;18.80;42.40;;;;;;8326810;28;20034;-47
2024/01/12 06:26:05;;;;;;;3.00;1.93;;;18.80;42.50;;;;;;8327351;28;20020;-47
2024/01/12 06:30:06;;;;;;;2.85;1.80;;;18.80;42.50;;;;;;8329899;28;20025;-48
2024/01/12 06:34:07;;;;;;;;;;;18.80;42.40;;;;;;8332636;28;20152;-48
2024/01/12 06:38:10;;;;;;;1.53;1.40;;;18.80;42.40;;;;;;8332235;28;19909;-47
2024/01/12 06:42:11;;;;;;;2.08;1.88;;;18.80;42.50;;;;;;8332312;28;20119;-46
2024/01/12 06:46:11;;;;;;;1.63;1.52;;;18.80;42.50;;;;;;8332004;28;20033;-48
2024/01/12 06:50:12;;;;;;;2.67;1.77;;;18.80;42.40;;;;;;8331836;28;20084;-47
2024/01/12 06:54:13;;;;;;;1.90;1.60;;;18.80;42.50;;;;;;8330836;28;20359;-47
2024/01/12 06:58:14;;;;;;;2.05;1.70;;;18.80;42.50;;;;;;8331604;28;20072;-46
2024/01/12 07:02:15;;;;;;;2.70;2.00;;;18.80;42.50;;;;;;8331426;28;20434;-47
2024/01/12 07:06:15;;;;;;;1.90;1.70;;;18.80;42.50;;;;;;8330412;28;20034;-47
2024/01/12 07:10:16;;;;;;;2.00;1.60;;;18.80;42.50;;;;;;8331250;28;20053;-48
2024/01/12 07:14:17;;;;;;;2.90;1.90;;;18.80;42.50;;;;;;8330959;28;20487;-47
2024/01/12 07:18:17;;;;;;;2.03;1.50;;;18.80;42.50;;;;;;8331210;28;20285;-47
2024/01/12 07:22:18;;;;;;;2.67;2.00;;;18.80;42.60;;;;;;8330967;28;20044;-47
2024/01/12 07:26:19;;;;;;;2.13;1.55;;;18.80;42.60;;;;;;8330655;28;20479;-46
2024/01/12 07:30:19;;;;;;;2.20;1.60;;;18.70;42.60;;;;;;8331643;28;20037;-45
2024/01/12 07:34:21;;;;;;;2.83;1.98;;;18.80;42.60;;;;;;8329311;28;20038;-45
2024/01/12 07:38:21;;;;;;;1.98;1.77;;;18.70;42.60;;;;;;8330294;28;20029;-46
2024/01/12 07:42:22;;;;;;;3.40;1.90;;;18.70;42.70;;;;;;8329246;28;20041;-45
2024/01/12 07:46:23;;;;;;;3.00;2.15;;;18.70;42.70;;;;;;8312558;28;20042;-46
2024/01/12 07:50:24;;;;;;;2.55;2.03;;;18.70;42.70;;;;;;8329982;28;20082;-46
2024/01/12 07:54:24;;;;;;;2.60;2.07;;;18.70;42.60;;;;;;8329998;28;20034;-46
2024/01/12 07:58:25;;;;;;;2.08;1.80;;;18.80;42.60;;;;;;8329694;28;20722;-47
2024/01/12 08:02:26;;;;;;;3.10;1.75;;;18.80;42.50;;;;;;8329617;28;20040;-45
2024/01/12 08:06:26;;;;;;;2.80;2.08;;;18.90;42.50;;;;;;8330455;28;20045;-45
2024/01/12 08:10:27;;;;;;;3.42;1.85;;;18.90;42.50;;;;;;8329151;28;20049;-47
2024/01/12 08:14:28;;;;;;;1.60;1.50;;;18.80;42.40;;;;;;8329411;28;20041;-45
2024/01/12 08:18:29;;;;;;;2.35;1.75;;;18.80;42.50;;;;;;8329179;28;20060;-45
2024/01/12 08:22:29;;;;;;;1.73;1.60;;;18.80;42.50;;;;;;8329273;28;20037;-45
2024/01/12 08:26:30;;;;;;;2.17;1.55;;;18.80;42.60;;;;;;8329008;28;20387;-45
2024/01/12 08:30:33;;;;;;;1.77;1.50;;;18.80;42.50;;;;;;8328613;28;20033;-47
2024/01/12 08:34:33;;;;;;;2.67;1.90;;;18.80;42.50;;;;;;8328590;28;20057;-46
2024/01/12 08:38:34;;;;;;;2.50;1.90;;;18.80;42.50;;;;;;8327359;28;20079;-46
2024/01/12 08:42:35;;;;;;;1.98;1.60;;;18.80;42.50;;;;;;8328097;28;20034;-45
2024/01/12 08:46:35;;;;;;;2.40;1.63;;;18.80;42.50;;;;;;8328453;28;20033;-46
2024/01/12 08:50:36;;;;;;;2.38;1.70;;;18.80;42.50;;;;;;8328011;28;20057;-46
2024/01/12 08:54:37;;;;;;;2.08;1.77;;;18.80;42.50;;;;;;8327641;28;20037;-45
2024/01/12 08:58:38;;;;;;;1.83;1.63;;;18.80;42.50;;;;;;8327753;28;20048;-46
2024/01/12 09:02:39;;;;;;;2.22;1.80;;;18.80;42.60;;;;;;8327795;28;20038;-46
2024/01/12 09:06:39;;;;;;;3.28;2.22;;;18.80;42.60;;;;;;8327443;28;20042;-47
2024/01/12 09:10:40;;;;;;;2.50;2.00;;;18.80;42.60;;;;;;8327338;28;20057;-47
2024/01/12 09:14:41;;;;;;;2.05;1.63;;;18.80;42.60;;;;;;8327395;28;20044;-46
2024/01/12 09:18:43;;;;;;;1.95;1.58;;;18.80;42.60;;;;;;8327186;28;20038;-45
2024/01/12 09:22:44;;;;;;;3.30;2.00;;;18.80;42.60;;;;;;8327180;28;20037;-47
2024/01/12 09:26:44;;;;;;;2.22;1.88;;;18.80;42.60;;;;;;8326957;28;20483;-46
2024/01/12 09:30:46;;;;;;;2.13;1.75;;;18.80;42.60;;;;;;8327033;28;20022;-47
2024/01/12 09:34:47;;;;;;;3.30;1.98;;;18.80;42.60;;;;;;8326917;28;20116;-46
2024/01/12 09:38:47;;;;;;;2.22;1.45;;;18.80;42.60;;;;;;8326947;28;20034;-47
2024/01/12 09:42:49;;;;;;;2.45;1.67;;;18.80;42.60;;;;;;8326701;28;20060;-45
2024/01/12 09:46:59;;;;;;;2.85;1.90;;;18.80;42.60;;;;;;8326462;28;20418;-47
2024/01/12 09:51:01;;;;;;;1.58;1.38;;;18.80;42.60;;;;;;8326675;28;20042;-47
2024/01/12 09:55:02;;;;;;;2.40;1.85;;;18.80;42.60;;;;;;8326752;28;20033;-44
2024/01/12 09:59:03;;;;;;;2.08;1.80;;;18.80;42.60;;;;;;8325040;28;20036;-45
2024/01/12 10:03:05;;;;;;;2.33;1.92;;;18.80;42.60;;;;;;8327054;28;20434;-45
2024/01/12 10:07:06;;;;;;;2.42;1.98;;;18.80;42.60;;;;;;8332811;28;20053;-46
2024/01/12 10:11:07;;;;;;;2.22;2.03;;;18.80;42.60;;;;;;8331622;28;20049;-46
2024/01/12 10:15:09;;;;;;;1.90;1.75;;;18.80;42.60;;;;;;8332948;28;20104;-45
2024/01/12 10:19:10;;;;;;;2.90;1.63;;;18.80;42.60;;;;;;8333138;28;20053;-47
2024/01/12 10:23:10;;;;;;;2.88;1.90;;;18.80;42.60;;;;;;8332624;28;20467;-46
2024/01/12 10:27:13;;;;;;;3.53;2.22;;;18.80;42.60;;;;;;8332451;28;20033;-45
2024/01/12 10:31:14;;;;;;;3.55;2.47;;;18.80;42.60;;;;;;8332288;28;20037;-45
2024/01/12 10:35:14;;;;;;;2.67;2.10;;;18.80;42.60;;;;;;8330966;28;20084;-47
2024/01/12 10:39:18;;;;;;;2.33;1.60;;;18.80;42.60;;;;;;8332214;28;20391;-45
2024/01/12 10:43:22;;;;;;;1.90;1.70;;;18.80;42.60;;;;;;8331757;28;20029;-45
2024/01/12 10:47:29;;;;;;;2.45;1.85;;;18.80;42.60;;;;;;8331793;28;20091;-45
2024/01/12 10:51:32;;;;;;;2.47;2.00;;;18.80;42.60;;;;;;8331787;28;20027;-47
2024/01/12 10:55:35;;;;;;;2.53;1.73;;;18.80;42.70;;;;;;8331469;28;20479;-46
2024/01/12 10:59:36;;;;;;;2.55;1.90;;;18.80;42.60;;;;;;8331434;28;20077;-47
2024/01/12 11:03:38;;;;;;;2.80;1.77;;;18.80;42.60;;;;;;8331229;28;20387;-46
2024/01/12 11:07:42;;;;;;;2.30;1.70;;;18.80;42.70;;;;;;8330948;28;20034;-46
2024/01/12 11:12:05;;;;;;;2.80;2.00;;;18.80;42.70;;;;;;8331236;28;20112;-46
2024/01/12 11:16:08;;;;;;;2.20;1.60;;;18.80;42.70;;;;;;8331017;28;20045;-47
2024/01/12 11:20:19;;;;;;;2.58;2.03;;;18.80;42.70;;;;;;8330884;28;20033;-47
2024/01/12 11:24:21;;;;;;;2.53;1.75;;;18.80;42.70;;;;;;8330683;28;20038;-47
2024/01/12 11:28:21;;;;;;;3.50;2.20;;;18.80;42.80;;;;;;8330396;28;20542;-46
2024/01/12 11:32:22;;;;;;;2.42;1.80;;;18.80;42.70;;;;;;8330732;28;20391;-47
2024/01/12 11:36:27;;;;;;;2.45;2.05;;;18.80;42.70;;;;;;8330410;28;20042;-47
2024/01/12 11:40:28;;;;;;;2.20;1.90;;;18.80;42.70;;;;;;8330260;28;20034;-47
2024/01/12 11:44:31;;;;;;;4.05;2.13;;;18.80;42.70;;;;;;8330255;28;20659;-47
2024/01/12 11:48:32;;;;;;;2.13;1.77;;;18.80;42.70;;;;;;8330006;28;20494;-46
2024/01/12 11:52:34;;;;;;;2.42;1.95;;;18.80;42.80;;;;;;8330041;28;20123;-47
2024/01/12 11:56:34;;;;;;;;;;;18.80;42.70;;;;;;8330473;28;20033;-46
2024/01/12 12:00:35;;;;;;;2.67;1.67;;;18.80;42.70;;;;;;8329732;28;19912;-46
2024/01/12 12:04:36;;;;;;;2.25;2.03;;;18.80;42.70;;;;;;8329699;28;20061;-44
2024/01/12 12:08:40;;;;;;;2.65;2.03;;;18.80;43.20;;;;;;8329367;28;20057;-45
2024/01/12 12:12:40;;;;;;;2.97;2.08;;;18.80;42.70;;;;;;8328101;28;20032;-46
2024/01/12 12:16:41;;;;;;;1.88;1.67;;;18.80;42.80;;;;;;8329376;28;20033;-46
2024/01/12 12:20:42;;;;;;;2.65;1.80;;;18.80;42.70;;;;;;8329062;28;20508;-46
2024/01/12 12:24:44;;;;;;;3.00;1.80;;;18.80;42.70;;;;;;8328971;28;20499;-45
2024/01/12 12:28:45;;;;;;;2.97;1.95;;;18.80;42.70;;;;;;8328278;28;20029;-46
2024/01/12 12:32:47;;;;;;;1.95;1.63;;;18.80;42.70;;;;;;8328731;28;20026;-45
2024/01/12 12:36:47;;;;;;;;;;;18.80;42.70;;;;;;8329073;28;20037;-45
2024/01/12 12:40:48;;;;;;;2.43;1.53;;;18.80;42.70;;;;;;8329161;28;19912;-46
2024/01/12 12:44:50;;;;;;;2.88;1.90;;;18.80;42.80;;;;;;8328337;28;20087;-45
2024/01/12 12:48:54;;;;;;;2.45;1.85;;;18.80;42.80;;;;;;8326915;28;20060;-46
2024/01/12 12:52:55;;;;;;;2.38;1.60;;;18.80;42.80;;;;;;8328026;28;20423;-45
2024/01/12 12:57:00;;;;;;;2.75;1.70;;;18.80;42.80;;;;;;8328084;28;20033;-47
2024/01/12 13:01:01;;;;;;;2.53;1.88;;;18.80;42.70;;;;;;8328231;28;20083;-44
2024/01/12 13:05:03;;;;;;;2.22;1.90;;;18.80;42.70;;;;;;8327270;28;20057;-47
2024/01/12 13:09:06;;;;;;;2.90;2.00;;;18.80;42.80;;;;;;8327585;28;20104;-45
2024/01/12 13:13:06;;;;;;;1.90;1.65;;;18.80;42.80;;;;;;8327599;28;20079;-46
2024/01/12 13:17:07;;;;;;;2.22;1.88;;;18.80;42.80;;;;;;8327405;28;20037;-47
2024/01/12 13:21:10;;;;;;;1.92;1.70;;;18.80;42.80;;;;;;8327496;28;20087;-47
2024/01/12 13:25:11;;;;;;;2.83;1.95;;;18.70;42.80;;;;;;8327525;28;20164;-48
2024/01/12 13:29:12;;;;;;;2.22;1.73;;;18.80;43.40;;;;;;8327493;28;20044;-46
2024/01/12 13:33:12;;;;;;;2.88;2.08;;;18.80;42.90;;;;;;8327125;28;20056;-47
2024/01/12 13:37:15;;;;;;;2.20;1.90;;;18.80;42.80;;;;;;8326569;28;20040;-47
2024/01/12 13:41:15;;;;;;;2.42;1.75;;;18.80;42.80;;;;;;8327156;28;20049;-46
2024/01/12 13:45:16;;;;;;;2.38;1.80;;;18.80;42.80;;;;;;8326964;28;20038;-46
2024/01/12 13:49:17;;;;;;;2.25;1.90;;;18.80;42.80;;;;;;8326858;28;20034;-46
2024/01/12 13:53:18;;;;;;;2.20;1.92;;;18.80;42.80;;;;;;8326815;28;20029;-46
2024/01/12 13:57:19;;;;;;;3.08;1.88;;;18.80;42.80;;;;;;8326950;28;20092;-46
2024/01/12 14:01:20;;;;;;;2.50;1.77;;;18.80;42.80;;;;;;8326694;28;20037;-46
2024/01/12 14:05:21;;;;;;;3.97;2.20;;;18.80;42.80;;;;;;8326648;28;20037;-46
2024/01/12 14:09:21;;;;;;;2.47;1.75;;;18.80;42.80;;;;;;8326141;28;20045;-46
2024/01/12 14:13:23;;;;;;;3.08;2.03;;;18.80;42.80;;;;;;8326485;28;20053;-46
2024/01/12 14:17:23;;;;;;;2.60;2.00;;;18.80;42.80;;;;;;8326583;28;20038;-46
2024/01/12 14:21:24;;;;;;;2.67;2.20;;;18.80;42.80;;;;;;8326500;28;20510;-46
2024/01/12 14:25:24;;;;;;;2.33;2.03;;;18.80;42.80;;;;;;8326412;28;20029;-46
2024/01/12 14:29:25;;;;;;;1.98;1.77;;;18.80;42.80;;;;;;8326168;28;20444;-47
2024/01/12 14:33:26;;;;;;;2.10;1.70;;;18.80;42.80;;;;;;8326142;28;20029;-47
2024/01/12 14:37:27;;;;;;;2.88;2.08;;;18.80;42.80;;;;;;8326094;28;20545;-46
2024/01/12 14:41:28;;;;;;;3.10;2.25;;;18.80;42.80;;;;;;8327017;28;20438;-46
2024/01/12 14:45:28;;;;;;;2.63;1.75;;;18.80;42.80;;;;;;8325729;28;20491;-47
2024/01/12 14:49:29;;;;;;;2.60;2.20;;;18.80;42.80;;;;;;8327025;28;20064;-46
2024/01/12 14:53:35;;;;;;;3.03;2.10;;;18.80;42.80;;;;;;8333025;28;20025;-46
2024/01/12 14:57:38;;;;;;;2.25;1.73;;;18.80;42.80;;;;;;8330509;28;20037;-46
2024/01/12 15:01:39;;;;;;;3.25;2.13;;;18.80;43.40;;;;;;8331794;28;20029;-46
2024/01/12 15:05:40;;;;;;;2.78;1.90;;;18.80;42.90;;;;;;8331510;28;20038;-46
2024/01/12 15:09:41;;;;;;;;;;;18.80;42.90;;;;;;8331383;28;20053;-46
2024/01/12 15:13:42;;;;;;;2.17;1.97;;;18.80;42.90;;;;;;8331330;28;19928;-45
2024/01/12 15:17:43;;;;;;;2.40;2.10;;;18.80;42.80;;;;;;8313375;28;20502;-47
2024/01/12 15:21:44;;;;;;;2.35;1.92;;;18.80;42.90;;;;;;8330937;28;20697;-47
2024/01/12 15:25:45;;;;;;;2.75;2.00;;;18.80;42.90;;;;;;8328010;28;20120;-47
2024/01/12 15:29:46;;;;;;;2.67;2.17;;;18.80;42.80;;;;;;8307149;28;20121;-47
2024/01/12 15:33:46;;;;;;;3.38;2.60;;;18.80;42.80;;;;;;8317046;28;20037;-48
2024/01/12 15:37:48;;;;;;;4.38;2.50;;;18.80;42.70;;;;;;8330366;28;20037;-45
2024/01/12 15:41:48;;;;;;;3.45;2.17;;;18.80;42.70;;;;;;8330377;28;20041;-47
2024/01/12 15:45:49;;;;;;;3.73;2.60;;;18.80;42.70;;;;;;8330511;28;20029;-44
2024/01/12 15:49:49;;;;;;;4.95;2.58;;;18.80;42.70;;;;;;8329937;28;20608;-46
2024/01/12 15:53:50;;;;;;;3.00;2.03;;;18.80;42.70;;;;;;8329853;28;20033;-46
2024/01/12 15:57:51;;;;;;;4.10;2.45;;;18.80;42.70;;;;;;8329643;28;20083;-45
2024/01/12 16:01:52;;;;;;;3.10;2.45;;;18.80;42.70;;;;;;8328794;28;20514;-45
2024/01/12 16:05:52;;;;;;;2.60;2.17;;;18.80;42.70;;;;;;8328165;28;20076;-45
2024/01/12 16:09:53;;;;;;;3.42;2.30;;;18.80;42.70;;;;;;8328013;28;20054;-45
2024/01/12 16:13:54;;;;;;;3.05;2.42;;;18.80;42.70;;;;;;8329202;28;20041;-45
2024/01/12 16:17:54;;;;;;;3.78;2.45;;;18.80;42.70;;;;;;8329148;28;20399;-46
2024/01/12 16:21:57;;;;;;;2.85;2.30;;;18.70;42.70;;;;;;8328833;28;20583;-45
2024/01/12 16:25:58;;;;;;;3.42;2.58;;;18.80;42.70;;;;;;8328627;28;20041;-45
2024/01/12 16:29:59;;;;;;;3.90;2.83;;;18.80;42.80;;;;;;8327393;28;20033;-44
2024/01/12 16:33:59;;;;;;;3.10;2.38;;;18.80;42.80;;;;;;8328386;28;20033;-46
2024/01/12 16:38:00;;;;;;;3.33;2.40;;;18.80;42.80;;;;;;8328218;28;20120;-46
2024/01/12 16:42:01;;;;;;;2.65;2.13;;;18.80;42.80;;;;;;8328675;28;20037;-46
2024/01/12 16:46:02;;;;;;;3.08;2.15;;;18.80;42.80;;;;;;8326967;28;20025;-45
2024/01/12 16:50:03;;;;;;;2.83;1.98;;;18.80;42.80;;;;;;8327951;28;20039;-45
2024/01/12 16:54:04;;;;;;;4.20;2.40;;;18.80;42.80;;;;;;8327984;28;20042;-46
2024/01/12 16:58:05;;;;;;;2.25;1.95;;;18.80;42.80;;;;;;8327871;28;20036;-46
2024/01/12 17:02:05;;;;;;;4.35;2.60;;;18.80;42.80;;;;;;8326715;28;20044;-45
2024/01/12 17:06:06;;;;;;;3.15;2.63;;;18.80;42.80;;;;;;8327717;28;20036;-46
2024/01/12 17:10:08;;;;;;;2.78;2.13;;;18.70;42.70;;;;;;8327510;28;20081;-46
2024/01/12 17:14:09;;;;;;;3.28;2.10;;;18.80;42.80;;;;;;8326665;28;20083;-46
2024/01/12 17:18:10;;;;;;;3.75;2.40;;;18.80;42.80;;;;;;8327318;28;20045;-46
2024/01/12 17:22:11;;;;;;;2.67;2.35;;;18.70;42.80;;;;;;8327367;28;20116;-47
2024/01/12 17:26:12;;;;;;;4.18;2.25;;;18.80;42.80;;;;;;8327187;28;20040;-46
2024/01/12 17:30:13;;;;;;;3.05;2.30;;;18.80;42.80;;;;;;8327130;28;20060;-48
2024/01/12 17:34:14;;;;;;;3.50;2.38;;;18.80;42.80;;;;;;8327097;28;20025;-47
2024/01/12 17:38:15;;;;;;;3.03;2.67;;;18.80;42.80;;;;;;8327423;28;20033;-47
2024/01/12 17:42:16;;;;;;;3.75;2.78;;;18.80;42.80;;;;;;8326700;28;20033;-47
2024/01/12 17:46:17;;;;;;;2.83;2.38;;;18.80;42.80;;;;;;8327342;28;20036;-46
2024/01/12 17:50:17;;;;;;;3.85;2.47;;;18.80;42.80;;;;;;8326680;28;20521;-46
2024/01/12 17:54:23;;;;;;;3.00;2.35;;;18.70;42.80;;;;;;8325798;28;20360;-46
2024/01/12 17:58:24;;;;;;;3.05;2.00;;;18.80;42.80;;;;;;8326500;28;20075;-47
2024/01/12 18:02:25;;;;;;;4.22;3.00;;;18.80;42.80;;;;;;8326456;28;20029;-46
2024/01/12 18:06:25;;;;;;;2.70;2.17;;;18.80;42.90;;;;;;8326635;28;20060;-48
2024/01/12 18:10:27;;;;;;;3.00;2.40;;;18.80;42.80;;;;;;8326124;28;20129;-47
2024/01/12 18:14:27;;;;;;;;;;;18.70;42.80;;;;;;8326728;28;20030;-48
2024/01/12 18:18:28;;;;;;;2.50;1.97;;;18.70;42.90;;;;;;8326335;28;19909;-46
2024/01/12 18:22:29;;;;;;;2.42;2.03;;;18.70;43.00;;;;;;8326067;28;20038;-47
2024/01/12 18:26:31;;;;;;;3.13;2.53;;;18.70;43.00;;;;;;8331122;28;20042;-46
2024/01/12 18:30:32;;;;;;;3.00;2.33;;;18.70;43.00;;;;;;8332774;28;20087;-47
2024/01/12 18:34:33;;;;;;;2.83;2.00;;;18.70;43.10;;;;;;8332184;28;20479;-46
2024/01/12 18:38:33;;;;;;;3.05;2.33;;;18.60;43.10;;;;;;8332542;28;20389;-46
2024/01/12 18:42:34;;;;;;;4.30;2.63;;;18.60;43.10;;;;;;8332169;28;20042;-47
2024/01/12 18:46:35;;;;;;;3.55;2.22;;;18.60;43.10;;;;;;8331945;28;20650;-46
2024/01/12 18:50:35;;;;;;;4.03;2.55;;;18.60;43.10;;;;;;8332070;28;20045;-47
2024/01/12 18:54:36;;;;;;;3.10;2.35;;;18.70;43.00;;;;;;8331958;28;20037;-46
2024/01/12 18:58:37;;;;;;;4.47;2.50;;;18.80;42.90;;;;;;8331560;28;20415;-46
2024/01/12 19:02:37;;;;;;;3.60;2.53;;;18.80;42.80;;;;;;8331662;28;20369;-46
2024/01/12 19:06:38;;;;;;;4.00;2.65;;;18.80;42.80;;;;;;8320643;28;20056;-44
2024/01/12 19:10:39;;;;;;;3.70;2.78;;;18.80;42.70;;;;;;8303687;28;20050;-47
2024/01/12 19:14:39;;;;;;;3.33;2.80;;;18.80;42.80;;;;;;8301408;28;20038;-45
2024/01/12 19:18:40;;;;;;;3.55;2.67;;;18.80;42.90;;;;;;8309418;28;20061;-45
2024/01/12 19:22:41;;;;;;;4.20;2.80;;;18.80;43.00;;;;;;8317610;28;20478;-46
2024/01/12 19:26:41;;;;;;;4.10;2.83;;;18.80;43.00;;;;;;8325226;28;20032;-47
2024/01/12 19:30:42;;;;;;;3.80;2.58;;;18.80;43.00;;;;;;8311913;28;20396;-46
2024/01/12 19:34:43;;;;;;;3.28;2.50;;;18.80;43.10;;;;;;8313125;28;20037;-47
2024/01/12 19:38:44;;;;;;;4.10;2.80;;;18.80;43.20;;;;;;8335771;28;20112;-46
2024/01/12 19:42:45;;;;;;;4.15;2.97;;;18.90;43.20;;;;;;8329059;28;20132;-47
2024/01/12 19:46:46;;;;;;;3.17;2.88;;;18.90;43.20;;;;;;8319969;28;20433;-46
2024/01/12 19:50:47;;;;;;;3.42;2.55;;;18.90;43.20;;;;;;8330370;28;20103;-47
2024/01/12 19:54:47;;;;;;;3.45;2.42;;;18.90;43.20;;;;;;8302649;28;20491;-47
2024/01/12 19:58:50;;;;;;;3.63;2.60;;;18.90;43.20;;;;;;8318461;28;20034;-46
2024/01/12 20:02:51;;;;;;;3.65;2.60;;;18.90;43.00;;;;;;8310101;28;20373;-46
2024/01/12 20:06:52;;;;;;;3.35;2.42;;;18.90;43.00;;;;;;8315866;28;20085;-47
2024/01/12 20:10:53;;;;;;;5.15;3.08;;;18.90;43.00;;;;;;8296703;28;20512;-47
2024/01/12 20:14:54;;;;;;;3.58;2.60;;;18.90;42.90;;;;;;8309233;28;20046;-48
2024/01/12 20:18:55;;;;;;;2.70;2.22;;;19.00;42.60;;;;;;8328057;28;20033;-48
2024/01/12 20:22:55;;;;;;;3.65;2.28;;;19.00;42.30;;;;;;8323044;28;20034;-47
2024/01/12 20:26:56;;;;;;;2.75;2.40;;;19.00;42.10;;;;;;8306283;28;20033;-47
2024/01/12 20:30:57;;;;;;;4.15;2.42;;;19.00;42.10;;;;;;8308660;28;20104;-47
2024/01/12 20:34:57;;;;;;;4.82;2.40;;;19.10;42.00;;;;;;8314755;28;20045;-48
2024/01/12 20:38:58;;;;;;;5.18;2.75;;;19.10;41.90;;;;;;8296345;28;20037;-47
2024/01/12 20:43:00;;;;;;;4.60;3.08;;;19.10;41.90;;;;;;8295810;28;20034;-46
2024/01/12 20:47:01;;;;;;;6.97;3.38;;;19.10;41.90;;;;;;8299744;28;20091;-48
2024/01/12 20:51:02;;;;;;;7.75;3.85;;;19.10;41.90;;;;;;8313694;28;20117;-46
2024/01/12 20:55:04;;;;;;;47.80;22.35;;;19.10;42.00;;;;;;8321656;28;20046;-46